sensor_id;sensor_type;location;lat;lon;timestamp;P1;durP1;ratioP1;P2;durP2;ratioP2
3647;SDS011;1840;48.892;15.312;2022-09-16T00:00:53;10.97;;;5.33;;
3647;SDS011;1840;48.892;15.312;2022-09-16T00:03:22;7.60;;;4.97;;
3647;SDS011;1840;48.892;15.312;2022-09-16T00:05:50;10.60;;;5.40;;
3647;SDS011;1840;48.892;15.312;2022-09-16T00:08:19;7.23;;;4.80;;
3647;SDS011;1840;48.892;15.312;2022-09-16T00:10:48;12.10;;;5.37;;
3647;SDS011;1840;48.892;15.312;2022-09-16T00:13:17;8.03;;;4.63;;
3647;SDS011;1840;48.892;15.312;2022-09-16T00:15:46;11.83;;;6.03;;
3647;SDS011;1840;48.892;15.312;2022-09-16T00:18:16;9.70;;;4.93;;
3647;SDS011;1840;48.892;15.312;2022-09-16T00:20:46;6.60;;;4.70;;
3647;SDS011;1840;48.892;15.312;2022-09-16T00:23:16;7.93;;;4.47;;
3647;SDS011;1840;48.892;15.312;2022-09-16T00:25:48;10.33;;;5.77;;
3647;SDS011;1840;48.892;15.312;2022-09-16T00:28:18;7.93;;;5.93;;
3647;SDS011;1840;48.892;15.312;2022-09-16T00:30:47;8.17;;;5.30;;
3647;SDS011;1840;48.892;15.312;2022-09-16T00:33:16;13.60;;;6.00;;
3647;SDS011;1840;48.892;15.312;2022-09-16T00:35:45;9.43;;;5.70;;
3647;SDS011;1840;48.892;15.312;2022-09-16T00:38:13;8.90;;;4.20;;
3647;SDS011;1840;48.892;15.312;2022-09-16T00:40:42;9.27;;;4.67;;
3647;SDS011;1840;48.892;15.312;2022-09-16T00:43:11;8.47;;;4.67;;
3647;SDS011;1840;48.892;15.312;2022-09-16T00:45:42;10.90;;;4.27;;
3647;SDS011;1840;48.892;15.312;2022-09-16T00:48:13;9.37;;;4.50;;
3647;SDS011;1840;48.892;15.312;2022-09-16T00:50:46;10.20;;;4.53;;
3647;SDS011;1840;48.892;15.312;2022-09-16T00:53:17;9.07;;;4.60;;
3647;SDS011;1840;48.892;15.312;2022-09-16T00:55:49;9.00;;;5.20;;
3647;SDS011;1840;48.892;15.312;2022-09-16T00:58:19;7.43;;;5.00;;
3647;SDS011;1840;48.892;15.312;2022-09-16T01:00:55;13.33;;;5.27;;
3647;SDS011;1840;48.892;15.312;2022-09-16T01:03:24;9.20;;;4.83;;
3647;SDS011;1840;48.892;15.312;2022-09-16T01:05:54;8.67;;;5.13;;
3647;SDS011;1840;48.892;15.312;2022-09-16T01:08:22;10.10;;;5.30;;
3647;SDS011;1840;48.892;15.312;2022-09-16T01:10:51;7.17;;;5.07;;
3647;SDS011;1840;48.892;15.312;2022-09-16T01:13:19;14.80;;;5.50;;
3647;SDS011;1840;48.892;15.312;2022-09-16T01:15:50;8.03;;;5.10;;
3647;SDS011;1840;48.892;15.312;2022-09-16T01:18:25;7.80;;;4.03;;
3647;SDS011;1840;48.892;15.312;2022-09-16T01:21:02;8.20;;;5.13;;
3647;SDS011;1840;48.892;15.312;2022-09-16T01:29:54;17.83;;;5.13;;
3647;SDS011;1840;48.892;15.312;2022-09-16T01:32:58;7.27;;;5.10;;
3647;SDS011;1840;48.892;15.312;2022-09-16T01:35:43;6.50;;;4.20;;
3647;SDS011;1840;48.892;15.312;2022-09-16T01:38:24;9.90;;;5.37;;
3647;SDS011;1840;48.892;15.312;2022-09-16T01:41:02;14.40;;;5.20;;
3647;SDS011;1840;48.892;15.312;2022-09-16T01:43:38;6.00;;;4.53;;
3647;SDS011;1840;48.892;15.312;2022-09-16T01:46:14;6.40;;;3.93;;
3647;SDS011;1840;48.892;15.312;2022-09-16T01:48:51;5.97;;;4.70;;
3647;SDS011;1840;48.892;15.312;2022-09-16T01:51:27;7.60;;;4.50;;
3647;SDS011;1840;48.892;15.312;2022-09-16T01:54:01;5.63;;;3.97;;
3647;SDS011;1840;48.892;15.312;2022-09-16T01:56:36;5.10;;;3.83;;
3647;SDS011;1840;48.892;15.312;2022-09-16T01:59:12;9.30;;;4.60;;
3647;SDS011;1840;48.892;15.312;2022-09-16T02:01:47;7.53;;;4.40;;
3647;SDS011;1840;48.892;15.312;2022-09-16T02:04:23;18.87;;;4.60;;
3647;SDS011;1840;48.892;15.312;2022-09-16T02:06:56;6.10;;;3.67;;
3647;SDS011;1840;48.892;15.312;2022-09-16T02:09:28;10.10;;;4.63;;
3647;SDS011;1840;48.892;15.312;2022-09-16T02:12:00;8.07;;;4.80;;
3647;SDS011;1840;48.892;15.312;2022-09-16T02:14:32;9.73;;;4.40;;
3647;SDS011;1840;48.892;15.312;2022-09-16T02:17:06;22.27;;;5.43;;
3647;SDS011;1840;48.892;15.312;2022-09-16T02:19:38;42.83;;;7.40;;
3647;SDS011;1840;48.892;15.312;2022-09-16T02:22:09;25.57;;;4.70;;
3647;SDS011;1840;48.892;15.312;2022-09-16T02:24:40;8.30;;;4.50;;
3647;SDS011;1840;48.892;15.312;2022-09-16T02:27:11;5.43;;;4.07;;
3647;SDS011;1840;48.892;15.312;2022-09-16T02:29:45;6.27;;;4.13;;
3647;SDS011;1840;48.892;15.312;2022-09-16T02:32:16;21.03;;;6.00;;
3647;SDS011;1840;48.892;15.312;2022-09-16T02:34:49;8.97;;;4.43;;
3647;SDS011;1840;48.892;15.312;2022-09-16T02:37:22;9.83;;;4.60;;
3647;SDS011;1840;48.892;15.312;2022-09-16T02:39:55;7.47;;;5.00;;
3647;SDS011;1840;48.892;15.312;2022-09-16T02:42:27;8.17;;;4.60;;
3647;SDS011;1840;48.892;15.312;2022-09-16T02:44:56;9.30;;;4.83;;
3647;SDS011;1840;48.892;15.312;2022-09-16T02:47:26;6.00;;;4.07;;
3647;SDS011;1840;48.892;15.312;2022-09-16T02:50:00;18.07;;;6.00;;
3647;SDS011;1840;48.892;15.312;2022-09-16T02:52:37;6.80;;;4.50;;
3647;SDS011;1840;48.892;15.312;2022-09-16T02:55:12;13.90;;;4.70;;
3647;SDS011;1840;48.892;15.312;2022-09-16T02:57:43;8.90;;;5.33;;
3647;SDS011;1840;48.892;15.312;2022-09-16T03:00:11;8.70;;;4.83;;
3647;SDS011;1840;48.892;15.312;2022-09-16T03:02:40;12.83;;;5.53;;
3647;SDS011;1840;48.892;15.312;2022-09-16T03:05:09;17.40;;;5.97;;
3647;SDS011;1840;48.892;15.312;2022-09-16T03:07:37;13.33;;;5.47;;
3647;SDS011;1840;48.892;15.312;2022-09-16T03:10:08;8.53;;;5.10;;
3647;SDS011;1840;48.892;15.312;2022-09-16T03:12:42;8.40;;;5.60;;
3647;SDS011;1840;48.892;15.312;2022-09-16T03:21:28;11.03;;;5.30;;
3647;SDS011;1840;48.892;15.312;2022-09-16T03:24:07;12.80;;;5.90;;
3647;SDS011;1840;48.892;15.312;2022-09-16T03:26:43;10.67;;;5.93;;
3647;SDS011;1840;48.892;15.312;2022-09-16T03:29:16;7.90;;;5.20;;
3647;SDS011;1840;48.892;15.312;2022-09-16T03:31:50;18.73;;;6.10;;
3647;SDS011;1840;48.892;15.312;2022-09-16T03:34:25;15.03;;;6.97;;
3647;SDS011;1840;48.892;15.312;2022-09-16T03:36:58;9.77;;;6.47;;
3647;SDS011;1840;48.892;15.312;2022-09-16T03:39:29;8.57;;;5.80;;
3647;SDS011;1840;48.892;15.312;2022-09-16T03:41:59;7.90;;;5.60;;
3647;SDS011;1840;48.892;15.312;2022-09-16T03:44:32;9.93;;;5.90;;
3647;SDS011;1840;48.892;15.312;2022-09-16T03:47:01;11.20;;;7.07;;
3647;SDS011;1840;48.892;15.312;2022-09-16T03:49:30;7.97;;;5.33;;
3647;SDS011;1840;48.892;15.312;2022-09-16T03:51:59;7.60;;;5.90;;
3647;SDS011;1840;48.892;15.312;2022-09-16T03:54:29;9.23;;;6.10;;
3647;SDS011;1840;48.892;15.312;2022-09-16T03:56:58;9.97;;;4.93;;
3647;SDS011;1840;48.892;15.312;2022-09-16T03:59:26;10.50;;;5.67;;
3647;SDS011;1840;48.892;15.312;2022-09-16T04:01:55;9.27;;;5.67;;
3647;SDS011;1840;48.892;15.312;2022-09-16T04:04:23;10.20;;;6.67;;
3647;SDS011;1840;48.892;15.312;2022-09-16T04:06:51;10.87;;;6.30;;
3647;SDS011;1840;48.892;15.312;2022-09-16T04:09:20;7.30;;;5.70;;
3647;SDS011;1840;48.892;15.312;2022-09-16T04:11:48;12.37;;;5.97;;
3647;SDS011;1840;48.892;15.312;2022-09-16T04:14:16;9.80;;;6.90;;
3647;SDS011;1840;48.892;15.312;2022-09-16T04:16:45;8.33;;;6.40;;
3647;SDS011;1840;48.892;15.312;2022-09-16T04:19:14;12.33;;;6.50;;
3647;SDS011;1840;48.892;15.312;2022-09-16T04:21:42;8.47;;;6.17;;
3647;SDS011;1840;48.892;15.312;2022-09-16T04:24:10;17.40;;;6.23;;
3647;SDS011;1840;48.892;15.312;2022-09-16T04:26:40;11.43;;;7.60;;
3647;SDS011;1840;48.892;15.312;2022-09-16T04:29:09;15.57;;;7.50;;
3647;SDS011;1840;48.892;15.312;2022-09-16T04:31:37;10.20;;;6.67;;
3647;SDS011;1840;48.892;15.312;2022-09-16T04:34:05;9.33;;;6.60;;
3647;SDS011;1840;48.892;15.312;2022-09-16T04:36:34;11.50;;;6.23;;
3647;SDS011;1840;48.892;15.312;2022-09-16T04:39:02;11.77;;;6.30;;
3647;SDS011;1840;48.892;15.312;2022-09-16T04:41:31;13.03;;;7.87;;
3647;SDS011;1840;48.892;15.312;2022-09-16T04:44:01;12.73;;;6.33;;
3647;SDS011;1840;48.892;15.312;2022-09-16T04:46:29;24.23;;;6.17;;
3647;SDS011;1840;48.892;15.312;2022-09-16T04:48:58;16.00;;;8.33;;
3647;SDS011;1840;48.892;15.312;2022-09-16T04:51:27;12.33;;;7.93;;
3647;SDS011;1840;48.892;15.312;2022-09-16T04:53:57;11.57;;;6.80;;
3647;SDS011;1840;48.892;15.312;2022-09-16T04:56:27;19.43;;;7.90;;
3647;SDS011;1840;48.892;15.312;2022-09-16T04:58:57;8.53;;;6.53;;
3647;SDS011;1840;48.892;15.312;2022-09-16T05:01:28;9.33;;;6.77;;
3647;SDS011;1840;48.892;15.312;2022-09-16T05:03:58;13.27;;;7.77;;
3647;SDS011;1840;48.892;15.312;2022-09-16T05:06:27;12.67;;;7.50;;
3647;SDS011;1840;48.892;15.312;2022-09-16T05:08:57;13.97;;;8.63;;
3647;SDS011;1840;48.892;15.312;2022-09-16T05:11:27;17.53;;;9.87;;
3647;SDS011;1840;48.892;15.312;2022-09-16T05:13:57;11.50;;;8.30;;
3647;SDS011;1840;48.892;15.312;2022-09-16T05:16:25;11.60;;;8.67;;
3647;SDS011;1840;48.892;15.312;2022-09-16T05:18:56;15.07;;;8.30;;
3647;SDS011;1840;48.892;15.312;2022-09-16T05:21:25;28.17;;;8.87;;
3647;SDS011;1840;48.892;15.312;2022-09-16T05:23:58;13.63;;;9.00;;
3647;SDS011;1840;48.892;15.312;2022-09-16T05:26:27;10.60;;;8.00;;
3647;SDS011;1840;48.892;15.312;2022-09-16T05:28:59;16.23;;;8.60;;
3647;SDS011;1840;48.892;15.312;2022-09-16T05:31:28;9.90;;;7.67;;
3647;SDS011;1840;48.892;15.312;2022-09-16T05:33:59;19.57;;;9.00;;
3647;SDS011;1840;48.892;15.312;2022-09-16T05:36:29;11.57;;;8.20;;
3647;SDS011;1840;48.892;15.312;2022-09-16T05:38:59;20.50;;;8.57;;
3647;SDS011;1840;48.892;15.312;2022-09-16T05:41:47;11.90;;;9.23;;
3647;SDS011;1840;48.892;15.312;2022-09-16T05:44:17;14.30;;;9.03;;
3647;SDS011;1840;48.892;15.312;2022-09-16T05:46:45;12.50;;;8.07;;
3647;SDS011;1840;48.892;15.312;2022-09-16T05:49:15;12.90;;;8.20;;
3647;SDS011;1840;48.892;15.312;2022-09-16T05:51:46;14.23;;;7.10;;
3647;SDS011;1840;48.892;15.312;2022-09-16T05:54:14;15.83;;;7.20;;
3647;SDS011;1840;48.892;15.312;2022-09-16T05:56:44;13.67;;;7.03;;
3647;SDS011;1840;48.892;15.312;2022-09-16T05:59:13;15.73;;;7.90;;
3647;SDS011;1840;48.892;15.312;2022-09-16T06:01:42;11.50;;;6.77;;
3647;SDS011;1840;48.892;15.312;2022-09-16T06:04:12;11.93;;;6.70;;
3647;SDS011;1840;48.892;15.312;2022-09-16T06:06:42;10.40;;;6.47;;
3647;SDS011;1840;48.892;15.312;2022-09-16T06:09:12;10.03;;;6.20;;
3647;SDS011;1840;48.892;15.312;2022-09-16T06:11:44;14.50;;;6.70;;
3647;SDS011;1840;48.892;15.312;2022-09-16T06:14:13;13.40;;;6.50;;
3647;SDS011;1840;48.892;15.312;2022-09-16T06:16:42;9.10;;;6.07;;
3647;SDS011;1840;48.892;15.312;2022-09-16T06:19:12;24.17;;;8.57;;
3647;SDS011;1840;48.892;15.312;2022-09-16T06:21:42;8.70;;;6.67;;
3647;SDS011;1840;48.892;15.312;2022-09-16T06:24:12;12.60;;;6.90;;
3647;SDS011;1840;48.892;15.312;2022-09-16T06:26:42;11.87;;;8.13;;
3647;SDS011;1840;48.892;15.312;2022-09-16T06:29:11;15.23;;;6.90;;
3647;SDS011;1840;48.892;15.312;2022-09-16T06:31:39;18.60;;;8.43;;
3647;SDS011;1840;48.892;15.312;2022-09-16T06:34:11;16.80;;;7.60;;
3647;SDS011;1840;48.892;15.312;2022-09-16T06:36:42;9.60;;;6.70;;
3647;SDS011;1840;48.892;15.312;2022-09-16T06:39:11;11.30;;;6.40;;
3647;SDS011;1840;48.892;15.312;2022-09-16T06:41:40;12.17;;;7.00;;
3647;SDS011;1840;48.892;15.312;2022-09-16T06:44:08;16.87;;;7.80;;
3647;SDS011;1840;48.892;15.312;2022-09-16T06:46:37;13.70;;;7.63;;
3647;SDS011;1840;48.892;15.312;2022-09-16T06:49:05;10.67;;;7.90;;
3647;SDS011;1840;48.892;15.312;2022-09-16T06:51:36;10.97;;;7.67;;
3647;SDS011;1840;48.892;15.312;2022-09-16T06:54:06;15.20;;;7.60;;
3647;SDS011;1840;48.892;15.312;2022-09-16T06:56:36;13.53;;;6.80;;
3647;SDS011;1840;48.892;15.312;2022-09-16T06:59:05;11.37;;;8.27;;
3647;SDS011;1840;48.892;15.312;2022-09-16T07:01:34;8.80;;;6.87;;
3647;SDS011;1840;48.892;15.312;2022-09-16T07:04:03;10.50;;;6.13;;
3647;SDS011;1840;48.892;15.312;2022-09-16T07:06:35;10.00;;;6.73;;
3647;SDS011;1840;48.892;15.312;2022-09-16T07:09:25;19.80;;;7.13;;
3647;SDS011;1840;48.892;15.312;2022-09-16T07:11:53;10.50;;;7.10;;
3647;SDS011;1840;48.892;15.312;2022-09-16T07:14:21;11.63;;;7.10;;
3647;SDS011;1840;48.892;15.312;2022-09-16T07:16:50;11.23;;;6.70;;
3647;SDS011;1840;48.892;15.312;2022-09-16T07:19:18;18.37;;;8.17;;
3647;SDS011;1840;48.892;15.312;2022-09-16T07:21:47;9.47;;;7.07;;
3647;SDS011;1840;48.892;15.312;2022-09-16T07:24:15;12.77;;;7.97;;
3647;SDS011;1840;48.892;15.312;2022-09-16T07:26:44;12.03;;;7.63;;
3647;SDS011;1840;48.892;15.312;2022-09-16T07:29:13;20.13;;;8.93;;
3647;SDS011;1840;48.892;15.312;2022-09-16T07:31:43;15.63;;;7.90;;
3647;SDS011;1840;48.892;15.312;2022-09-16T07:34:11;12.33;;;6.27;;
3647;SDS011;1840;48.892;15.312;2022-09-16T07:36:40;11.73;;;6.97;;
3647;SDS011;1840;48.892;15.312;2022-09-16T07:39:10;11.30;;;7.77;;
3647;SDS011;1840;48.892;15.312;2022-09-16T07:41:41;11.60;;;8.47;;
3647;SDS011;1840;48.892;15.312;2022-09-16T07:44:12;9.87;;;6.87;;
3647;SDS011;1840;48.892;15.312;2022-09-16T07:46:42;15.43;;;7.50;;
3647;SDS011;1840;48.892;15.312;2022-09-16T07:49:11;11.67;;;7.37;;
3647;SDS011;1840;48.892;15.312;2022-09-16T07:51:40;14.30;;;8.43;;
3647;SDS011;1840;48.892;15.312;2022-09-16T07:54:10;12.67;;;9.30;;
3647;SDS011;1840;48.892;15.312;2022-09-16T07:56:39;14.13;;;9.37;;
3647;SDS011;1840;48.892;15.312;2022-09-16T07:59:11;11.50;;;7.43;;
3647;SDS011;1840;48.892;15.312;2022-09-16T08:01:44;12.20;;;7.80;;
3647;SDS011;1840;48.892;15.312;2022-09-16T08:04:13;10.87;;;7.37;;
3647;SDS011;1840;48.892;15.312;2022-09-16T08:06:41;13.33;;;6.70;;
3647;SDS011;1840;48.892;15.312;2022-09-16T08:09:09;11.00;;;6.50;;
3647;SDS011;1840;48.892;15.312;2022-09-16T08:11:57;14.20;;;6.37;;
3647;SDS011;1840;48.892;15.312;2022-09-16T08:14:29;13.80;;;7.60;;
3647;SDS011;1840;48.892;15.312;2022-09-16T08:16:58;13.70;;;6.90;;
3647;SDS011;1840;48.892;15.312;2022-09-16T08:19:27;12.90;;;8.10;;
3647;SDS011;1840;48.892;15.312;2022-09-16T08:21:55;13.07;;;8.00;;
3647;SDS011;1840;48.892;15.312;2022-09-16T08:24:23;10.17;;;7.90;;
3647;SDS011;1840;48.892;15.312;2022-09-16T08:26:51;15.23;;;7.67;;
3647;SDS011;1840;48.892;15.312;2022-09-16T08:29:24;11.00;;;7.40;;
3647;SDS011;1840;48.892;15.312;2022-09-16T08:31:54;10.27;;;6.17;;
3647;SDS011;1840;48.892;15.312;2022-09-16T08:34:22;9.23;;;6.30;;
3647;SDS011;1840;48.892;15.312;2022-09-16T08:36:50;13.50;;;7.83;;
3647;SDS011;1840;48.892;15.312;2022-09-16T08:39:18;12.40;;;5.20;;
3647;SDS011;1840;48.892;15.312;2022-09-16T08:41:54;14.63;;;6.50;;
3647;SDS011;1840;48.892;15.312;2022-09-16T08:44:50;9.93;;;5.90;;
3647;SDS011;1840;48.892;15.312;2022-09-16T08:47:31;12.73;;;6.30;;
3647;SDS011;1840;48.892;15.312;2022-09-16T08:50:04;9.93;;;5.00;;
3647;SDS011;1840;48.892;15.312;2022-09-16T08:52:40;7.70;;;5.97;;
3647;SDS011;1840;48.892;15.312;2022-09-16T08:55:14;8.00;;;4.93;;
3647;SDS011;1840;48.892;15.312;2022-09-16T08:57:47;9.07;;;4.40;;
3647;SDS011;1840;48.892;15.312;2022-09-16T09:00:20;8.27;;;4.57;;
3647;SDS011;1840;48.892;15.312;2022-09-16T09:02:52;10.37;;;4.40;;
3647;SDS011;1840;48.892;15.312;2022-09-16T09:05:24;8.93;;;3.67;;
3647;SDS011;1840;48.892;15.312;2022-09-16T09:08:03;5.90;;;3.60;;
3647;SDS011;1840;48.892;15.312;2022-09-16T09:10:41;4.40;;;2.73;;
3647;SDS011;1840;48.892;15.312;2022-09-16T09:13:20;5.60;;;3.20;;
3647;SDS011;1840;48.892;15.312;2022-09-16T09:15:59;4.90;;;2.43;;
3647;SDS011;1840;48.892;15.312;2022-09-16T09:18:39;4.60;;;2.57;;
3647;SDS011;1840;48.892;15.312;2022-09-16T09:21:19;4.57;;;2.43;;
3647;SDS011;1840;48.892;15.312;2022-09-16T09:23:59;5.53;;;2.40;;
3647;SDS011;1840;48.892;15.312;2022-09-16T09:26:40;4.43;;;2.20;;
3647;SDS011;1840;48.892;15.312;2022-09-16T09:29:22;5.83;;;1.93;;
3647;SDS011;1840;48.892;15.312;2022-09-16T09:32:05;8.93;;;2.27;;
3647;SDS011;1840;48.892;15.312;2022-09-16T09:34:49;4.07;;;2.10;;
3647;SDS011;1840;48.892;15.312;2022-09-16T09:37:37;5.57;;;2.43;;
3647;SDS011;1840;48.892;15.312;2022-09-16T09:40:18;4.30;;;2.43;;
3647;SDS011;1840;48.892;15.312;2022-09-16T09:42:50;7.13;;;3.10;;
3647;SDS011;1840;48.892;15.312;2022-09-16T09:45:34;7.37;;;2.73;;
3647;SDS011;1840;48.892;15.312;2022-09-16T09:48:08;5.63;;;2.70;;
3647;SDS011;1840;48.892;15.312;2022-09-16T09:50:45;4.93;;;2.80;;
3647;SDS011;1840;48.892;15.312;2022-09-16T09:53:18;9.20;;;2.30;;
3647;SDS011;1840;48.892;15.312;2022-09-16T09:55:50;4.83;;;2.50;;
3647;SDS011;1840;48.892;15.312;2022-09-16T09:58:26;6.73;;;2.83;;
3647;SDS011;1840;48.892;15.312;2022-09-16T10:01:00;9.17;;;3.20;;
3647;SDS011;1840;48.892;15.312;2022-09-16T10:03:29;6.77;;;3.47;;
3647;SDS011;1840;48.892;15.312;2022-09-16T10:05:59;3.87;;;2.27;;
3647;SDS011;1840;48.892;15.312;2022-09-16T10:08:27;7.83;;;3.17;;
3647;SDS011;1840;48.892;15.312;2022-09-16T10:11:00;7.13;;;2.73;;
3647;SDS011;1840;48.892;15.312;2022-09-16T10:13:29;4.60;;;2.57;;
3647;SDS011;1840;48.892;15.312;2022-09-16T10:16:07;4.93;;;2.40;;
3647;SDS011;1840;48.892;15.312;2022-09-16T10:18:40;6.37;;;2.50;;
3647;SDS011;1840;48.892;15.312;2022-09-16T10:21:12;4.23;;;2.17;;
3647;SDS011;1840;48.892;15.312;2022-09-16T10:23:51;5.13;;;2.33;;
3647;SDS011;1840;48.892;15.312;2022-09-16T10:26:20;9.70;;;3.00;;
3647;SDS011;1840;48.892;15.312;2022-09-16T10:28:54;3.63;;;2.00;;
3647;SDS011;1840;48.892;15.312;2022-09-16T10:31:25;6.10;;;2.33;;
3647;SDS011;1840;48.892;15.312;2022-09-16T10:34:00;5.07;;;2.20;;
3647;SDS011;1840;48.892;15.312;2022-09-16T10:36:33;4.10;;;2.43;;
3647;SDS011;1840;48.892;15.312;2022-09-16T10:39:02;10.03;;;2.80;;
3647;SDS011;1840;48.892;15.312;2022-09-16T10:41:31;5.43;;;2.80;;
3647;SDS011;1840;48.892;15.312;2022-09-16T10:44:02;5.00;;;2.43;;
3647;SDS011;1840;48.892;15.312;2022-09-16T10:46:34;7.60;;;2.57;;
3647;SDS011;1840;48.892;15.312;2022-09-16T10:49:08;6.00;;;2.20;;
3647;SDS011;1840;48.892;15.312;2022-09-16T10:51:41;5.57;;;2.60;;
3647;SDS011;1840;48.892;15.312;2022-09-16T10:54:20;4.17;;;2.00;;
3647;SDS011;1840;48.892;15.312;2022-09-16T10:56:53;4.50;;;2.27;;
3647;SDS011;1840;48.892;15.312;2022-09-16T10:59:21;6.47;;;2.07;;
3647;SDS011;1840;48.892;15.312;2022-09-16T11:01:51;6.03;;;2.77;;
3647;SDS011;1840;48.892;15.312;2022-09-16T11:04:36;4.70;;;2.00;;
3647;SDS011;1840;48.892;15.312;2022-09-16T11:07:15;4.73;;;1.77;;
3647;SDS011;1840;48.892;15.312;2022-09-16T11:09:52;4.60;;;2.37;;
3647;SDS011;1840;48.892;15.312;2022-09-16T11:12:29;4.53;;;2.00;;
3647;SDS011;1840;48.892;15.312;2022-09-16T11:15:11;7.40;;;2.30;;
3647;SDS011;1840;48.892;15.312;2022-09-16T11:17:56;7.50;;;2.50;;
3647;SDS011;1840;48.892;15.312;2022-09-16T11:20:41;3.43;;;1.90;;
3647;SDS011;1840;48.892;15.312;2022-09-16T11:23:34;3.73;;;2.10;;
3647;SDS011;1840;48.892;15.312;2022-09-16T11:26:14;4.20;;;2.00;;
3647;SDS011;1840;48.892;15.312;2022-09-16T11:29:01;3.90;;;2.00;;
3647;SDS011;1840;48.892;15.312;2022-09-16T11:31:43;4.10;;;2.00;;
3647;SDS011;1840;48.892;15.312;2022-09-16T11:34:25;3.87;;;2.27;;
3647;SDS011;1840;48.892;15.312;2022-09-16T11:37:06;7.53;;;2.43;;
3647;SDS011;1840;48.892;15.312;2022-09-16T11:39:45;4.37;;;2.10;;
3647;SDS011;1840;48.892;15.312;2022-09-16T11:42:27;6.60;;;2.00;;
3647;SDS011;1840;48.892;15.312;2022-09-16T11:45:02;5.10;;;2.00;;
3647;SDS011;1840;48.892;15.312;2022-09-16T11:47:56;3.90;;;1.87;;
3647;SDS011;1840;48.892;15.312;2022-09-16T11:50:40;5.73;;;1.80;;
3647;SDS011;1840;48.892;15.312;2022-09-16T11:53:17;13.77;;;2.13;;
3647;SDS011;1840;48.892;15.312;2022-09-16T11:56:02;8.27;;;3.83;;
3647;SDS011;1840;48.892;15.312;2022-09-16T11:58:36;3.50;;;1.80;;
3647;SDS011;1840;48.892;15.312;2022-09-16T12:01:13;4.97;;;2.00;;
3647;SDS011;1840;48.892;15.312;2022-09-16T12:03:52;3.57;;;1.97;;
3647;SDS011;1840;48.892;15.312;2022-09-16T12:06:26;3.60;;;1.80;;
3647;SDS011;1840;48.892;15.312;2022-09-16T12:08:59;4.40;;;1.63;;
3647;SDS011;1840;48.892;15.312;2022-09-16T12:11:37;3.93;;;2.00;;
3647;SDS011;1840;48.892;15.312;2022-09-16T12:14:11;4.47;;;2.57;;
3647;SDS011;1840;48.892;15.312;2022-09-16T12:16:42;12.40;;;2.17;;
3647;SDS011;1840;48.892;15.312;2022-09-16T12:19:15;5.53;;;2.00;;
3647;SDS011;1840;48.892;15.312;2022-09-16T12:21:49;10.07;;;2.40;;
3647;SDS011;1840;48.892;15.312;2022-09-16T12:24:26;5.60;;;2.10;;
3647;SDS011;1840;48.892;15.312;2022-09-16T12:27:04;5.50;;;1.93;;
3647;SDS011;1840;48.892;15.312;2022-09-16T12:29:37;4.77;;;2.07;;
3647;SDS011;1840;48.892;15.312;2022-09-16T12:32:13;6.30;;;2.20;;
3647;SDS011;1840;48.892;15.312;2022-09-16T12:34:47;4.40;;;1.83;;
3647;SDS011;1840;48.892;15.312;2022-09-16T12:37:28;3.80;;;1.80;;
3647;SDS011;1840;48.892;15.312;2022-09-16T12:40:02;3.50;;;2.00;;
3647;SDS011;1840;48.892;15.312;2022-09-16T12:42:46;3.87;;;2.00;;
3647;SDS011;1840;48.892;15.312;2022-09-16T12:45:38;4.57;;;2.10;;
3647;SDS011;1840;48.892;15.312;2022-09-16T12:51:23;4.13;;;2.00;;
3647;SDS011;1840;48.892;15.312;2022-09-16T12:57:40;6.93;;;1.80;;
3647;SDS011;1840;48.892;15.312;2022-09-16T13:00:20;4.17;;;2.03;;
3647;SDS011;1840;48.892;15.312;2022-09-16T13:02:52;6.67;;;2.30;;
3647;SDS011;1840;48.892;15.312;2022-09-16T13:05:24;5.23;;;2.17;;
3647;SDS011;1840;48.892;15.312;2022-09-16T13:08:01;5.53;;;2.13;;
3647;SDS011;1840;48.892;15.312;2022-09-16T13:10:31;4.60;;;2.17;;
3647;SDS011;1840;48.892;15.312;2022-09-16T13:13:27;7.60;;;2.13;;
3647;SDS011;1840;48.892;15.312;2022-09-16T13:16:00;6.40;;;2.17;;
3647;SDS011;1840;48.892;15.312;2022-09-16T13:18:43;5.50;;;2.17;;
3647;SDS011;1840;48.892;15.312;2022-09-16T13:21:15;4.43;;;2.20;;
3647;SDS011;1840;48.892;15.312;2022-09-16T13:23:52;10.00;;;2.27;;
3647;SDS011;1840;48.892;15.312;2022-09-16T13:26:36;3.77;;;2.00;;
3647;SDS011;1840;48.892;15.312;2022-09-16T13:32:26;7.80;;;2.20;;
3647;SDS011;1840;48.892;15.312;2022-09-16T13:35:02;4.80;;;2.00;;
3647;SDS011;1840;48.892;15.312;2022-09-16T13:37:31;4.43;;;2.17;;
3647;SDS011;1840;48.892;15.312;2022-09-16T13:42:43;7.13;;;2.50;;
3647;SDS011;1840;48.892;15.312;2022-09-16T13:45:31;9.70;;;3.07;;
3647;SDS011;1840;48.892;15.312;2022-09-16T13:48:04;3.77;;;1.97;;
3647;SDS011;1840;48.892;15.312;2022-09-16T13:50:38;8.73;;;2.67;;
3647;SDS011;1840;48.892;15.312;2022-09-16T13:53:09;3.97;;;2.03;;
3647;SDS011;1840;48.892;15.312;2022-09-16T13:55:46;5.40;;;2.30;;
3647;SDS011;1840;48.892;15.312;2022-09-16T13:58:17;5.53;;;2.43;;
3647;SDS011;1840;48.892;15.312;2022-09-16T14:00:56;4.70;;;2.60;;
3647;SDS011;1840;48.892;15.312;2022-09-16T14:03:42;5.93;;;2.20;;
3647;SDS011;1840;48.892;15.312;2022-09-16T14:06:35;7.90;;;2.50;;
3647;SDS011;1840;48.892;15.312;2022-09-16T14:12:15;5.30;;;2.50;;
3647;SDS011;1840;48.892;15.312;2022-09-16T14:14:51;5.80;;;2.77;;
3647;SDS011;1840;48.892;15.312;2022-09-16T14:17:21;4.17;;;2.20;;
3647;SDS011;1840;48.892;15.312;2022-09-16T14:19:55;5.43;;;2.13;;
3647;SDS011;1840;48.892;15.312;2022-09-16T14:22:25;5.23;;;2.23;;
3647;SDS011;1840;48.892;15.312;2022-09-16T14:24:55;6.10;;;2.60;;
3647;SDS011;1840;48.892;15.312;2022-09-16T14:27:38;6.07;;;2.83;;
3647;SDS011;1840;48.892;15.312;2022-09-16T14:30:12;11.23;;;2.60;;
3647;SDS011;1840;48.892;15.312;2022-09-16T14:32:42;5.33;;;2.13;;
3647;SDS011;1840;48.892;15.312;2022-09-16T14:35:15;4.40;;;2.10;;
3647;SDS011;1840;48.892;15.312;2022-09-16T14:37:46;10.43;;;1.90;;
3647;SDS011;1840;48.892;15.312;2022-09-16T14:40:18;5.27;;;2.13;;
3647;SDS011;1840;48.892;15.312;2022-09-16T14:42:50;9.23;;;2.77;;
3647;SDS011;1840;48.892;15.312;2022-09-16T14:45:20;3.50;;;2.00;;
3647;SDS011;1840;48.892;15.312;2022-09-16T14:47:50;5.93;;;2.17;;
3647;SDS011;1840;48.892;15.312;2022-09-16T14:50:23;4.30;;;2.30;;
3647;SDS011;1840;48.892;15.312;2022-09-16T14:52:54;6.50;;;2.60;;
3647;SDS011;1840;48.892;15.312;2022-09-16T14:55:24;4.70;;;2.30;;
3647;SDS011;1840;48.892;15.312;2022-09-16T14:57:55;6.63;;;2.83;;
3647;SDS011;1840;48.892;15.312;2022-09-16T15:00:24;6.30;;;2.83;;
3647;SDS011;1840;48.892;15.312;2022-09-16T15:02:57;9.17;;;2.60;;
3647;SDS011;1840;48.892;15.312;2022-09-16T15:05:32;15.47;;;2.53;;
3647;SDS011;1840;48.892;15.312;2022-09-16T15:08:06;5.00;;;2.50;;
3647;SDS011;1840;48.892;15.312;2022-09-16T15:10:40;6.43;;;2.53;;
3647;SDS011;1840;48.892;15.312;2022-09-16T15:13:19;5.27;;;2.30;;
3647;SDS011;1840;48.892;15.312;2022-09-16T15:15:51;7.87;;;2.60;;
3647;SDS011;1840;48.892;15.312;2022-09-16T15:18:23;5.93;;;2.70;;
3647;SDS011;1840;48.892;15.312;2022-09-16T15:20:58;5.90;;;2.37;;
3647;SDS011;1840;48.892;15.312;2022-09-16T15:23:32;5.07;;;2.70;;
3647;SDS011;1840;48.892;15.312;2022-09-16T15:26:06;7.57;;;3.10;;
3647;SDS011;1840;48.892;15.312;2022-09-16T15:28:47;5.80;;;3.07;;
3647;SDS011;1840;48.892;15.312;2022-09-16T15:31:30;6.03;;;2.90;;
3647;SDS011;1840;48.892;15.312;2022-09-16T15:34:01;6.23;;;2.30;;
3647;SDS011;1840;48.892;15.312;2022-09-16T15:36:33;5.17;;;2.30;;
3647;SDS011;1840;48.892;15.312;2022-09-16T15:39:19;4.80;;;2.40;;
3647;SDS011;1840;48.892;15.312;2022-09-16T15:41:50;5.10;;;2.47;;
3647;SDS011;1840;48.892;15.312;2022-09-16T15:44:31;6.13;;;2.40;;
3647;SDS011;1840;48.892;15.312;2022-09-16T15:47:03;6.20;;;3.07;;
3647;SDS011;1840;48.892;15.312;2022-09-16T15:49:32;8.13;;;2.70;;
3647;SDS011;1840;48.892;15.312;2022-09-16T15:52:07;5.33;;;2.83;;
3647;SDS011;1840;48.892;15.312;2022-09-16T15:54:38;7.13;;;3.30;;
3647;SDS011;1840;48.892;15.312;2022-09-16T15:57:20;6.97;;;2.93;;
3647;SDS011;1840;48.892;15.312;2022-09-16T15:59:56;6.23;;;2.30;;